createdAt,value
2022-11-16T00:01:43.117Z,11.8
2022-11-16T00:02:49.718Z,11.9
2022-11-16T00:03:56.282Z,11.9
2022-11-16T00:05:02.882Z,11.9
2022-11-16T00:06:09.378Z,11.9
2022-11-16T00:07:15.935Z,11.9
2022-11-16T00:08:22.481Z,11.8
2022-11-16T00:09:29.047Z,11.8
2022-11-16T00:10:35.591Z,11.8
2022-11-16T00:11:42.147Z,11.8
2022-11-16T00:12:48.702Z,11.8
2022-11-16T00:13:55.415Z,11.8
2022-11-16T00:15:01.822Z,11.8
2022-11-16T00:16:08.370Z,11.8
2022-11-16T00:17:14.925Z,11.7
2022-11-16T00:18:21.480Z,11.8
2022-11-16T00:19:28.033Z,11.7
2022-11-16T00:20:34.592Z,11.7
2022-11-16T00:21:41.145Z,11.8
2022-11-16T00:22:47.694Z,11.8
2022-11-16T00:23:54.251Z,11.8
2022-11-16T00:25:00.803Z,11.8
2022-11-16T00:26:07.365Z,11.8
2022-11-16T00:27:13.908Z,11.7
2022-11-16T00:28:20.460Z,11.7
2022-11-16T00:29:27.027Z,11.7
2022-11-16T00:30:33.811Z,11.7
2022-11-16T00:31:40.618Z,11.7
2022-11-16T00:32:47.410Z,11.7
2022-11-16T00:33:54.205Z,11.7
2022-11-16T00:35:00.991Z,11.7
2022-11-16T00:36:07.851Z,11.7
2022-11-16T00:37:14.604Z,11.7
2022-11-16T00:38:21.380Z,11.7
2022-11-16T00:39:28.180Z,11.7
2022-11-16T00:40:34.965Z,11.7
2022-11-16T00:41:41.759Z,11.7
2022-11-16T00:42:48.544Z,11.7
2022-11-16T00:43:55.355Z,11.7
2022-11-16T00:46:35.757Z,11.7
2022-11-16T00:48:14.492Z,11.7
2022-11-16T00:49:53.236Z,11.7
2022-11-16T00:51:31.991Z,11.7
2022-11-16T00:52:39.249Z,11.7
2022-11-16T00:53:46.540Z,11.7
2022-11-16T00:57:03.995Z,11.7
2022-11-16T00:58:42.733Z,11.7
2022-11-16T01:00:21.482Z,11.6
2022-11-16T01:02:00.208Z,11.6
2022-11-16T01:03:38.953Z,11.6
2022-11-16T01:05:17.688Z,11.6
2022-11-16T01:09:07.229Z,11.6
2022-11-16T01:10:13.903Z,11.6
2022-11-16T01:11:20.339Z,11.5
2022-11-16T01:12:26.762Z,11.5
2022-11-16T01:13:33.200Z,11.5
2022-11-16T01:14:39.643Z,11.5
2022-11-16T01:15:46.080Z,11.5
2022-11-16T01:16:52.520Z,11.5
2022-11-16T01:17:58.947Z,11.5
2022-11-16T01:19:05.388Z,11.4
2022-11-16T01:20:11.823Z,11.5
2022-11-16T01:21:18.258Z,11.5
2022-11-16T01:22:24.700Z,11.5
2022-11-16T01:23:31.135Z,11.5
2022-11-16T01:24:37.640Z,11.4
2022-11-16T01:25:44.003Z,11.5
2022-11-16T01:26:50.441Z,11.4
2022-11-16T01:27:56.880Z,11.4
2022-11-16T01:29:03.321Z,11.4
2022-11-16T01:30:09.760Z,11.4
2022-11-16T01:31:16.196Z,11.4
2022-11-16T01:32:22.637Z,11.4
2022-11-16T01:33:29.065Z,11.4
2022-11-16T01:34:35.506Z,11.4
2022-11-16T01:35:41.940Z,11.4
2022-11-16T01:36:48.389Z,11.4
2022-11-16T01:37:54.955Z,11.4
2022-11-16T01:39:01.517Z,11.4
2022-11-16T01:40:08.068Z,11.4
2022-11-16T01:41:14.626Z,11.4
2022-11-16T01:42:21.181Z,11.4
2022-11-16T01:43:27.750Z,11.4
2022-11-16T01:44:34.302Z,11.4
2022-11-16T01:45:40.851Z,11.4
2022-11-16T01:46:47.417Z,11.4
2022-11-16T01:47:53.965Z,11.4
2022-11-16T01:49:00.522Z,11.4
2022-11-16T01:50:07.095Z,11.4
2022-11-16T01:51:13.641Z,11.4
2022-11-16T01:53:02.952Z,11.4
2022-11-16T01:54:09.747Z,11.4
2022-11-16T01:55:16.544Z,11.4
2022-11-16T01:56:23.353Z,11.4
2022-11-16T01:57:30.132Z,11.4
2022-11-16T01:58:36.927Z,11.4
2022-11-16T01:59:43.714Z,11.4
2022-11-16T02:00:50.521Z,11.4
2022-11-16T02:01:57.305Z,11.4
2022-11-16T02:03:04.100Z,11.4
2022-11-16T02:04:10.896Z,11.4
2022-11-16T02:05:17.691Z,11.4
2022-11-16T02:06:24.491Z,11.4
2022-11-16T02:09:42.591Z,11.4
2022-11-16T02:11:18.120Z,11.3
2022-11-16T02:12:25.399Z,11.4
2022-11-16T02:14:04.136Z,11.4
2022-11-16T02:15:42.870Z,11.4
2022-11-16T02:17:21.607Z,11.3
2022-11-16T02:19:00.367Z,11.3
2022-11-16T02:20:39.088Z,11.3
2022-11-16T02:22:17.833Z,11.3
2022-11-16T02:23:56.573Z,11.3
2022-11-16T02:25:35.315Z,11.2
2022-11-16T02:27:14.049Z,11.2
2022-11-16T02:28:21.317Z,11.3
2022-11-16T02:31:22.055Z,11.3
2022-11-16T02:34:37.624Z,11.3
2022-11-16T02:35:44.059Z,11.3
2022-11-16T02:36:50.491Z,11.3
2022-11-16T02:37:56.926Z,11.2
2022-11-16T02:39:03.376Z,11.2
2022-11-16T02:40:09.802Z,11.2
2022-11-16T02:41:16.245Z,11.2
2022-11-16T02:42:22.683Z,11.2
2022-11-16T02:43:29.127Z,11.2
2022-11-16T02:44:35.558Z,11.2
2022-11-16T02:45:41.991Z,11.2
2022-11-16T02:46:48.458Z,11.2
2022-11-16T02:47:54.876Z,11.2
2022-11-16T02:50:07.747Z,11.2
2022-11-16T02:51:14.177Z,11.2
2022-11-16T02:52:20.642Z,11.2
2022-11-16T02:53:27.059Z,11.2
2022-11-16T02:54:33.489Z,11.2
2022-11-16T02:55:39.930Z,11.2
2022-11-16T02:56:46.371Z,11.2
2022-11-16T02:57:52.807Z,11.2
2022-11-16T02:58:59.239Z,11.2
2022-11-16T03:00:05.678Z,11.3
2022-11-16T03:01:12.112Z,11.2
2022-11-16T03:02:18.690Z,11.2
2022-11-16T03:03:25.241Z,11.2
2022-11-16T03:04:31.868Z,11.2
2022-11-16T03:05:38.362Z,11.3
2022-11-16T03:06:44.913Z,11.3
2022-11-16T03:07:51.466Z,11.2
2022-11-16T03:08:58.056Z,11.2
2022-11-16T03:10:04.573Z,11.3
2022-11-16T03:11:11.128Z,11.2
2022-11-16T03:12:17.693Z,11.2
2022-11-16T03:13:24.247Z,11.2
2022-11-16T03:14:30.797Z,11.2
2022-11-16T03:15:37.356Z,11.2
2022-11-16T03:16:44.156Z,11.2
2022-11-16T03:17:50.944Z,11.2
2022-11-16T03:18:57.743Z,11.2
2022-11-16T03:20:04.542Z,11.2
2022-11-16T03:21:11.337Z,11.2
2022-11-16T03:22:18.119Z,11.2
2022-11-16T03:23:24.915Z,11.2
2022-11-16T03:24:31.714Z,11.2
2022-11-16T03:25:38.497Z,11.2
2022-11-16T03:26:45.293Z,11.2
2022-11-16T03:27:52.089Z,11.2
2022-11-16T03:28:58.887Z,11.1
2022-11-16T03:30:05.669Z,11.2
2022-11-16T03:32:46.039Z,11.2
2022-11-16T03:34:24.761Z,11.2
2022-11-16T03:36:03.498Z,11.1
2022-11-16T03:37:42.228Z,11.2
2022-11-16T03:38:49.501Z,11.2
2022-11-16T03:39:56.775Z,11.2
2022-11-16T03:41:35.523Z,11.2
2022-11-16T03:43:14.254Z,11.2
2022-11-16T03:44:52.991Z,11.2
2022-11-16T03:46:31.742Z,11.1
2022-11-16T03:48:10.468Z,11.2
2022-11-16T03:49:49.207Z,11.2
2022-11-16T03:51:27.939Z,11.2
2022-11-16T03:55:17.543Z,11.2
2022-11-16T03:56:25.820Z,11.2
2022-11-16T03:59:41.745Z,11.2
2022-11-16T04:00:48.549Z,11.1
2022-11-16T04:01:55.326Z,11.1
2022-11-16T04:03:02.126Z,11.1
2022-11-16T04:04:08.917Z,11.1
2022-11-16T04:05:15.714Z,11.1
2022-11-16T04:06:22.500Z,11.1
2022-11-16T04:07:29.294Z,11.2
2022-11-16T04:08:36.084Z,11.1
2022-11-16T04:09:42.875Z,11.1
2022-11-16T04:10:49.674Z,11.2
2022-11-16T04:11:56.461Z,11.1
2022-11-16T04:13:03.270Z,11.1
2022-11-16T04:14:10.052Z,11.1
2022-11-16T04:15:16.857Z,11.2
2022-11-16T04:16:23.645Z,11.2
2022-11-16T04:17:30.520Z,11.1
2022-11-16T04:18:37.228Z,11.2
2022-11-16T04:19:44.028Z,11.2
2022-11-16T04:20:50.816Z,11.2
2022-11-16T04:21:57.604Z,11.2
2022-11-16T04:23:04.404Z,11.2
2022-11-16T04:24:11.196Z,11.2
2022-11-16T04:25:17.997Z,11.2
2022-11-16T04:26:24.787Z,11.2
2022-11-16T04:28:10.507Z,11.2
2022-11-16T04:29:17.784Z,11.2
2022-11-16T04:30:56.524Z,11.2
2022-11-16T04:32:35.256Z,11.2
2022-11-16T04:34:13.984Z,11.2
2022-11-16T04:35:52.718Z,11.2
2022-11-16T04:37:31.464Z,11.2
2022-11-16T04:39:10.203Z,11.2
2022-11-16T04:40:48.937Z,11.2
2022-11-16T04:42:27.683Z,11.3
2022-11-16T04:44:06.417Z,11.3
2022-11-16T04:45:13.705Z,11.3
2022-11-16T04:46:20.945Z,11.2
2022-11-16T04:50:28.961Z,11.3
2022-11-16T04:53:44.653Z,11.3
2022-11-16T04:54:51.211Z,11.3
2022-11-16T04:55:57.763Z,11.3
2022-11-16T04:57:04.327Z,11.3
2022-11-16T04:58:10.877Z,11.4
2022-11-16T04:59:17.431Z,11.4
2022-11-16T05:00:23.984Z,11.3
2022-11-16T05:01:30.537Z,11.3
2022-11-16T05:02:37.095Z,11.3
2022-11-16T05:03:43.651Z,11.3
2022-11-16T05:04:50.212Z,11.3
2022-11-16T05:05:56.764Z,11.3
2022-11-16T05:07:03.326Z,11.3
2022-11-16T05:08:09.874Z,11.3
2022-11-16T05:09:16.460Z,11.3
2022-11-16T05:10:22.987Z,11.3
2022-11-16T05:11:29.545Z,11.3
2022-11-16T05:12:36.104Z,11.3
2022-11-16T05:13:42.681Z,11.3
2022-11-16T05:14:49.218Z,11.3
2022-11-16T05:15:55.768Z,11.3
2022-11-16T05:17:02.322Z,11.3
2022-11-16T05:18:08.874Z,11.3
2022-11-16T05:19:15.425Z,11.4
2022-11-16T05:20:21.979Z,11.3
2022-11-16T05:21:28.776Z,11.4
2022-11-16T05:22:35.570Z,11.4
2022-11-16T05:23:42.373Z,11.4
2022-11-16T05:24:49.167Z,11.4
2022-11-16T05:25:55.953Z,11.4
2022-11-16T05:27:02.749Z,11.4
2022-11-16T05:28:09.540Z,11.4
2022-11-16T05:29:16.334Z,11.4
2022-11-16T05:30:23.123Z,11.4
2022-11-16T05:31:29.924Z,11.4
2022-11-16T05:32:36.714Z,11.4
2022-11-16T05:33:43.540Z,11.4
2022-11-16T05:34:50.302Z,11.4
2022-11-16T05:38:08.403Z,11.5
2022-11-16T05:39:47.153Z,11.4
2022-11-16T05:41:25.884Z,11.4
2022-11-16T05:42:33.149Z,11.4
2022-11-16T05:43:40.415Z,11.4
2022-11-16T05:45:19.176Z,11.4
2022-11-16T05:46:57.899Z,11.4
2022-11-16T05:48:36.639Z,11.4
2022-11-16T05:50:15.378Z,11.4
2022-11-16T05:51:54.115Z,11.4
2022-11-16T05:53:32.852Z,11.4
2022-11-16T05:55:11.604Z,11.4
2022-11-16T05:56:50.329Z,11.4
2022-11-16T05:59:01.138Z,11.4
2022-11-16T06:00:58.340Z,11.5
2022-11-16T06:04:14.036Z,11.5
2022-11-16T06:08:40.298Z,11.4
2022-11-16T06:09:46.786Z,11.5
2022-11-16T06:10:53.348Z,11.4
2022-11-16T06:11:59.898Z,11.4
2022-11-16T06:13:06.461Z,11.4
2022-11-16T06:15:19.579Z,11.5
2022-11-16T06:21:58.898Z,11.5
2022-11-16T06:25:18.569Z,11.5
2022-11-16T06:26:25.121Z,11.5
2022-11-16T06:28:38.231Z,11.5
2022-11-16T06:29:44.787Z,11.5
2022-11-16T06:31:58.384Z,11.5
2022-11-16T06:33:04.930Z,11.5
2022-11-16T06:34:11.721Z,11.5
2022-11-16T06:35:18.515Z,11.5
2022-11-16T06:36:25.315Z,11.5
2022-11-16T06:37:32.100Z,11.5
2022-11-16T06:38:38.909Z,11.5
2022-11-16T06:39:45.679Z,11.5
2022-11-16T06:40:52.496Z,11.5
2022-11-16T06:41:59.275Z,11.5
2022-11-16T06:43:06.076Z,11.6
2022-11-16T06:44:12.855Z,11.6
2022-11-16T06:45:19.657Z,11.6
2022-11-16T06:48:37.757Z,11.6
2022-11-16T06:49:45.023Z,11.6
2022-11-16T06:50:52.291Z,11.6
2022-11-16T06:52:31.028Z,11.6
2022-11-16T06:54:09.788Z,11.6
2022-11-16T06:55:48.507Z,11.6
2022-11-16T06:57:27.259Z,11.6
2022-11-16T06:59:05.988Z,11.6
2022-11-16T07:00:44.722Z,11.6
2022-11-16T07:02:23.510Z,11.6
2022-11-16T07:04:02.196Z,11.6
2022-11-16T07:05:40.942Z,11.6
2022-11-16T07:06:48.218Z,11.6
2022-11-16T07:09:48.950Z,11.6
2022-11-16T07:13:04.863Z,11.7
2022-11-16T07:14:11.657Z,11.7
2022-11-16T07:15:18.457Z,11.7
2022-11-16T07:16:25.259Z,11.7
2022-11-16T07:17:32.042Z,11.7
2022-11-16T07:18:38.838Z,11.7
2022-11-16T07:19:45.633Z,11.7
2022-11-16T07:20:52.444Z,11.7
2022-11-16T07:21:59.225Z,11.7
2022-11-16T07:23:06.011Z,11.7
2022-11-16T07:24:12.810Z,11.7
2022-11-16T07:25:19.610Z,11.8
2022-11-16T07:26:26.405Z,11.8
2022-11-16T07:28:39.982Z,11.8
2022-11-16T07:29:46.840Z,11.8
2022-11-16T07:30:53.641Z,11.8
2022-11-16T07:32:00.436Z,11.8
2022-11-16T07:33:07.159Z,11.8
2022-11-16T07:34:13.965Z,11.8
2022-11-16T07:35:20.753Z,11.8
2022-11-16T07:36:27.540Z,11.8
2022-11-16T07:37:34.346Z,11.8
2022-11-16T07:38:41.122Z,11.8
2022-11-16T07:39:47.932Z,11.8
2022-11-16T07:41:21.218Z,11.9
2022-11-16T07:42:28.441Z,11.9
2022-11-16T07:44:07.170Z,11.8
2022-11-16T07:45:45.936Z,11.8
2022-11-16T07:47:24.645Z,11.9
2022-11-16T07:49:03.379Z,11.9
2022-11-16T07:50:42.155Z,11.9
2022-11-16T07:52:20.849Z,11.9
2022-11-16T07:53:59.591Z,11.9
2022-11-16T07:55:38.322Z,11.9
2022-11-16T07:57:17.057Z,12
2022-11-16T07:58:24.305Z,11.9
2022-11-16T07:59:31.591Z,12
2022-11-16T08:03:39.581Z,12
2022-11-16T08:06:57.017Z,12
2022-11-16T08:10:14.392Z,12.1
2022-11-16T08:13:30.070Z,12.2
2022-11-16T08:14:36.612Z,12.4
2022-11-16T08:15:43.174Z,12.4
2022-11-16T08:16:49.729Z,12.5
2022-11-16T08:17:56.282Z,12.5
2022-11-16T08:19:02.822Z,12.5
2022-11-16T08:20:09.387Z,12.5
2022-11-16T08:21:15.928Z,12.5
2022-11-16T08:22:22.559Z,12.5
2022-11-16T08:23:29.040Z,12.5
2022-11-16T08:24:35.598Z,12.6
2022-11-16T08:25:42.156Z,12.6
2022-11-16T08:26:48.699Z,12.6
2022-11-16T08:27:55.270Z,12.6
2022-11-16T08:29:01.815Z,12.7
2022-11-16T08:30:08.372Z,12.7
2022-11-16T08:31:14.921Z,12.7
2022-11-16T08:32:21.477Z,12.7
2022-11-16T08:33:28.036Z,12.7
2022-11-16T08:34:34.593Z,12.8
2022-11-16T08:35:41.143Z,12.7
2022-11-16T08:36:47.697Z,12.7
2022-11-16T08:37:54.251Z,12.8
2022-11-16T08:39:00.854Z,12.8
2022-11-16T08:40:07.361Z,12.8
2022-11-16T08:41:14.149Z,12.8
2022-11-16T08:42:20.951Z,12.8
2022-11-16T08:43:27.737Z,12.8
2022-11-16T08:44:34.525Z,12.7
2022-11-16T08:45:41.316Z,12.7
2022-11-16T08:46:48.114Z,12.7
2022-11-16T08:47:54.908Z,12.7
2022-11-16T08:49:01.711Z,12.7
2022-11-16T08:50:08.496Z,12.7
2022-11-16T08:51:15.294Z,12.7
2022-11-16T08:52:22.100Z,12.6
2022-11-16T08:53:28.873Z,12.6
2022-11-16T08:54:35.692Z,12.7
2022-11-16T08:57:53.776Z,12.6
2022-11-16T08:59:32.499Z,12.6
2022-11-16T09:00:39.780Z,12.6
2022-11-16T09:01:47.044Z,12.7
2022-11-16T09:03:25.777Z,12.7
2022-11-16T09:05:04.520Z,12.8
2022-11-16T09:06:43.268Z,12.8
2022-11-16T09:08:21.980Z,12.8
2022-11-16T09:10:00.730Z,12.7
2022-11-16T09:11:39.468Z,12.8
2022-11-16T09:13:18.203Z,12.8
2022-11-16T09:14:56.949Z,12.7
2022-11-16T09:16:35.677Z,12.7
2022-11-16T09:18:15.424Z,12.7
2022-11-16T09:21:32.841Z,12.6
2022-11-16T09:24:50.260Z,12.5
2022-11-16T09:28:07.675Z,12.6
2022-11-16T09:31:25.160Z,12.8
2022-11-16T09:34:42.510Z,12.7
2022-11-16T09:37:59.924Z,12.8
2022-11-16T09:41:17.333Z,12.9
2022-11-16T09:42:23.942Z,12.9
2022-11-16T09:44:33.015Z,12.9
2022-11-16T09:45:39.580Z,13
2022-11-16T09:46:46.113Z,13
2022-11-16T09:47:52.669Z,13.1
2022-11-16T09:48:59.223Z,13
2022-11-16T09:50:05.775Z,13.1
2022-11-16T09:51:12.345Z,13.1
2022-11-16T09:52:18.911Z,13.1
2022-11-16T09:53:25.445Z,13.1
2022-11-16T09:54:32.053Z,13.1
2022-11-16T09:55:38.563Z,13.2
2022-11-16T09:56:45.127Z,13.3
2022-11-16T09:57:51.678Z,13.3
2022-11-16T09:58:58.235Z,13.3
2022-11-16T10:00:04.820Z,13.3
2022-11-16T10:01:11.352Z,13.3
2022-11-16T10:02:17.903Z,13.3
2022-11-16T10:03:24.457Z,13.3
2022-11-16T10:04:31.013Z,13.3
2022-11-16T10:05:37.571Z,13.4
2022-11-16T10:06:44.127Z,13.3
2022-11-16T10:07:50.682Z,13.3
2022-11-16T10:08:57.245Z,13.3
2022-11-16T10:10:03.802Z,13.3
2022-11-16T10:11:10.586Z,13.4
2022-11-16T10:12:17.394Z,13.5
2022-11-16T10:13:24.174Z,13.4
2022-11-16T10:14:30.971Z,13.4
2022-11-16T10:15:37.759Z,13.3
2022-11-16T10:16:44.567Z,13.4
2022-11-16T10:17:51.352Z,13.4
2022-11-16T10:18:58.145Z,13.5
2022-11-16T10:20:04.929Z,13.6
2022-11-16T10:21:11.734Z,13.8
2022-11-16T10:22:18.536Z,13.9
2022-11-16T10:23:25.311Z,14.1
2022-11-16T10:24:32.104Z,14.4
2022-11-16T10:27:11.733Z,14.3
2022-11-16T10:28:50.498Z,14.3
2022-11-16T10:30:29.235Z,14.3
2022-11-16T10:32:08.036Z,14.1
2022-11-16T10:33:15.205Z,13.9
2022-11-16T10:34:22.477Z,13.8
2022-11-16T10:36:01.216Z,13.7
2022-11-16T10:37:39.951Z,13.6
2022-11-16T10:39:18.691Z,13.5
2022-11-16T10:40:57.418Z,13.4
2022-11-16T10:42:36.160Z,13.4
2022-11-16T10:44:14.939Z,13.5
2022-11-16T10:45:53.636Z,13.8
2022-11-16T10:49:43.225Z,14.4
2022-11-16T10:50:50.030Z,15.5
2022-11-16T10:51:56.567Z,15.5
2022-11-16T10:53:03.112Z,15.1
2022-11-16T10:54:09.662Z,15.1
2022-11-16T10:55:16.220Z,15
2022-11-16T10:56:22.758Z,14.9
2022-11-16T10:57:29.314Z,14.8
2022-11-16T10:58:35.871Z,14.8
2022-11-16T10:59:42.418Z,14.8
2022-11-16T11:00:48.972Z,14.6
2022-11-16T11:01:55.536Z,14.5
2022-11-16T11:03:02.076Z,14.4
2022-11-16T11:04:08.650Z,14.4
2022-11-16T11:05:15.176Z,14.2
2022-11-16T11:06:21.744Z,14.2
2022-11-16T11:07:28.294Z,14.2
2022-11-16T11:08:34.850Z,14.1
2022-11-16T11:09:41.397Z,14.1
2022-11-16T11:10:47.953Z,14.1
2022-11-16T11:11:54.500Z,14.6
2022-11-16T11:13:01.075Z,14.6
2022-11-16T11:14:07.622Z,14.7
2022-11-16T11:15:14.163Z,14.7
2022-11-16T11:16:20.718Z,14.6
2022-11-16T11:17:27.280Z,14.3
2022-11-16T11:18:34.060Z,14.4
2022-11-16T11:19:40.851Z,14.4
2022-11-16T11:20:47.645Z,14.3
2022-11-16T11:21:54.433Z,14.1
2022-11-16T11:23:01.230Z,14.3
2022-11-16T11:24:08.055Z,14.3
2022-11-16T11:25:14.824Z,14.1
2022-11-16T11:26:21.605Z,13.9
2022-11-16T11:27:28.392Z,13.8
2022-11-16T11:28:35.190Z,13.7
2022-11-16T11:29:41.962Z,13.6
2022-11-16T11:30:48.757Z,13.5
2022-11-16T11:31:55.548Z,13.4
2022-11-16T11:34:36.015Z,13.4
2022-11-16T11:36:14.748Z,13.3
2022-11-16T11:37:53.489Z,13.4
2022-11-16T11:39:32.220Z,13.6
2022-11-16T11:40:39.494Z,13.9
2022-11-16T11:41:46.761Z,14.1
2022-11-16T11:43:25.496Z,14.3
2022-11-16T11:45:04.243Z,14.6
2022-11-16T11:46:42.980Z,14.5
2022-11-16T11:48:21.701Z,14.7
2022-11-16T11:50:00.448Z,14.7
2022-11-16T11:51:39.171Z,14.4
2022-11-16T11:53:17.915Z,14.5
2022-11-16T11:57:07.502Z,14.3
2022-11-16T11:58:14.106Z,14.2
2022-11-16T11:59:20.664Z,14.1
2022-11-16T12:00:27.211Z,14
2022-11-16T12:01:33.769Z,13.9
2022-11-16T12:02:40.316Z,13.9
2022-11-16T12:03:46.872Z,13.7
2022-11-16T12:04:53.438Z,13.5
2022-11-16T12:05:59.984Z,13.4
2022-11-16T12:07:06.532Z,13.4
2022-11-16T12:08:13.084Z,13.4
2022-11-16T12:09:19.645Z,13.3
2022-11-16T12:10:26.197Z,13.3
2022-11-16T12:11:32.761Z,13.2
2022-11-16T12:12:39.309Z,13.2
2022-11-16T12:13:45.867Z,13.2
2022-11-16T12:14:52.415Z,13.2
2022-11-16T12:15:58.965Z,13.3
2022-11-16T12:17:05.535Z,13.4
2022-11-16T12:18:12.077Z,13.5
2022-11-16T12:19:18.638Z,13.6
2022-11-16T12:20:25.198Z,13.6
2022-11-16T12:21:31.743Z,13.8
2022-11-16T12:22:38.290Z,13.8
2022-11-16T12:23:44.854Z,13.9
2022-11-16T12:24:51.403Z,13.9
2022-11-16T12:25:58.193Z,13.9
2022-11-16T12:27:04.983Z,13.8
2022-11-16T12:28:11.782Z,13.8
2022-11-16T12:29:18.568Z,13.7
2022-11-16T12:30:25.356Z,13.8
2022-11-16T12:31:32.153Z,13.7
2022-11-16T12:32:38.937Z,13.6
2022-11-16T12:33:45.728Z,13.7
2022-11-16T12:34:52.524Z,13.7
2022-11-16T12:35:59.316Z,13.7
2022-11-16T12:37:06.115Z,13.8
2022-11-16T12:38:12.902Z,13.8
2022-11-16T12:39:19.687Z,13.7
2022-11-16T12:41:59.737Z,13.9
2022-11-16T12:43:38.472Z,14
2022-11-16T12:45:17.195Z,14.1
2022-11-16T12:46:55.948Z,14.4
2022-11-16T12:48:03.195Z,14.5
2022-11-16T12:49:10.470Z,14.6
2022-11-16T12:50:49.199Z,14.8
2022-11-16T12:52:27.934Z,15.1
2022-11-16T12:54:06.661Z,15.3
2022-11-16T12:55:45.399Z,15.5
2022-11-16T12:57:24.208Z,15.2
2022-11-16T12:59:02.856Z,15.1
2022-11-16T13:00:41.584Z,15
2022-11-16T13:04:31.230Z,15.1
2022-11-16T13:05:39.384Z,14.9
2022-11-16T13:08:55.289Z,14.9
2022-11-16T13:10:02.084Z,14.7
2022-11-16T13:11:08.877Z,14.6
2022-11-16T13:12:15.657Z,14.6
2022-11-16T13:13:22.457Z,14.7
2022-11-16T13:14:29.257Z,14.6
2022-11-16T13:15:36.032Z,14.6
2022-11-16T13:16:42.821Z,14.6
2022-11-16T13:17:49.624Z,14.6
2022-11-16T13:18:56.407Z,14.5
2022-11-16T13:20:03.200Z,14.7
2022-11-16T13:21:09.987Z,14.7
2022-11-16T13:22:16.794Z,14.7
2022-11-16T13:23:23.573Z,14.6
2022-11-16T13:24:30.360Z,14.7
2022-11-16T13:25:37.151Z,14.7
2022-11-16T13:26:43.957Z,14.6
2022-11-16T13:27:50.740Z,14.6
2022-11-16T13:28:57.598Z,14.5
2022-11-16T13:30:04.341Z,14.6
2022-11-16T13:31:11.109Z,14.6
2022-11-16T13:32:17.905Z,14.5
2022-11-16T13:33:24.698Z,14.5
2022-11-16T13:34:31.475Z,14.4
2022-11-16T13:35:38.266Z,14.4
2022-11-16T13:37:24.218Z,14.4
2022-11-16T13:38:31.484Z,14.5
2022-11-16T13:40:10.214Z,14.5
2022-11-16T13:41:48.959Z,14.5
2022-11-16T13:43:27.717Z,14.3
2022-11-16T13:45:06.427Z,14.3
2022-11-16T13:46:45.161Z,14.3
2022-11-16T13:48:23.883Z,14.2
2022-11-16T13:50:02.634Z,14.3
2022-11-16T13:51:41.365Z,14.3
2022-11-16T13:53:20.106Z,14.2
2022-11-16T13:54:27.366Z,14.1
2022-11-16T13:55:34.632Z,13.9
2022-11-16T13:59:42.636Z,13.9
2022-11-16T14:02:58.322Z,13.7
2022-11-16T14:04:04.877Z,13.5
2022-11-16T14:05:11.426Z,13.5
2022-11-16T14:06:17.985Z,13.6
2022-11-16T14:07:24.537Z,13.5
2022-11-16T14:08:31.087Z,13.4
2022-11-16T14:09:37.658Z,13.4
2022-11-16T14:10:44.202Z,13.3
2022-11-16T14:11:50.752Z,13.3
2022-11-16T14:12:57.304Z,13.3
2022-11-16T14:14:03.939Z,13.3
2022-11-16T14:15:10.424Z,13.3
2022-11-16T14:16:16.975Z,13.3
2022-11-16T14:17:23.524Z,13.2
2022-11-16T14:18:30.080Z,13.2
2022-11-16T14:19:36.632Z,13.2
2022-11-16T14:20:43.192Z,13.2
2022-11-16T14:21:49.742Z,13.2
2022-11-16T14:22:56.304Z,13.2
2022-11-16T14:24:02.853Z,13.1
2022-11-16T14:25:09.403Z,13
2022-11-16T14:26:15.957Z,13
2022-11-16T14:27:22.526Z,13
2022-11-16T14:28:29.053Z,13
2022-11-16T14:29:35.605Z,12.9
2022-11-16T14:30:42.397Z,12.8
2022-11-16T14:31:49.194Z,12.8
2022-11-16T14:32:55.984Z,12.7
2022-11-16T14:34:02.793Z,12.7
2022-11-16T14:35:09.583Z,12.7
2022-11-16T14:36:16.360Z,12.5
2022-11-16T14:37:23.142Z,12.5
2022-11-16T14:38:30.073Z,12.4
2022-11-16T14:39:36.725Z,12.4
2022-11-16T14:40:43.520Z,12.4
2022-11-16T14:41:50.303Z,12.4
2022-11-16T14:42:57.098Z,12.4
2022-11-16T14:44:03.889Z,12.3
2022-11-16T14:47:21.989Z,12.3
2022-11-16T14:49:00.713Z,12
2022-11-16T14:50:39.443Z,11.9
2022-11-16T14:51:46.723Z,11.9
2022-11-16T14:52:53.992Z,11.8
2022-11-16T14:54:32.724Z,11.8
2022-11-16T14:56:11.457Z,11.7
2022-11-16T14:57:50.193Z,11.6
2022-11-16T14:59:29.014Z,11.6
2022-11-16T15:01:07.674Z,11.5
2022-11-16T15:02:46.409Z,11.4
2022-11-16T15:04:25.149Z,11.4
2022-11-16T15:06:03.884Z,11.3
2022-11-16T15:08:14.747Z,11.1
2022-11-16T15:10:11.888Z,11
2022-11-16T15:13:27.567Z,10.8
2022-11-16T15:14:34.113Z,10.6
2022-11-16T15:15:40.666Z,10.5
2022-11-16T15:16:47.213Z,10.5
2022-11-16T15:17:53.756Z,10.4
2022-11-16T15:19:00.310Z,10.4
2022-11-16T15:20:06.864Z,10.3
2022-11-16T15:21:13.409Z,10.2
2022-11-16T15:22:19.966Z,10.2
2022-11-16T15:23:26.510Z,10.1
2022-11-16T15:24:33.065Z,10
2022-11-16T15:25:39.635Z,9.9
2022-11-16T15:26:46.208Z,9.9
2022-11-16T15:27:52.714Z,9.8
2022-11-16T15:28:59.265Z,9.8
2022-11-16T15:30:05.782Z,9.7
2022-11-16T15:31:12.312Z,9.7
2022-11-16T15:32:18.894Z,9.6
2022-11-16T15:33:25.440Z,9.6
2022-11-16T15:34:31.934Z,9.5
2022-11-16T15:35:38.453Z,9.4
2022-11-16T15:36:44.989Z,9.4
2022-11-16T15:37:51.528Z,9.3
2022-11-16T15:38:58.075Z,9.2
2022-11-16T15:40:04.598Z,9.1
2022-11-16T15:41:11.372Z,9
2022-11-16T15:42:18.142Z,8.9
2022-11-16T15:43:24.930Z,8.8
2022-11-16T15:44:31.695Z,8.7
2022-11-16T15:45:38.470Z,8.6
2022-11-16T15:46:45.233Z,8.6
2022-11-16T15:47:52.007Z,8.5
2022-11-16T15:48:58.789Z,8.5
2022-11-16T15:50:05.548Z,8.4
2022-11-16T15:51:12.327Z,8.4
2022-11-16T15:52:19.098Z,8.3
2022-11-16T15:53:25.871Z,8.3
2022-11-16T15:54:32.666Z,8.3
2022-11-16T15:57:50.831Z,8.3
2022-11-16T15:58:56.966Z,8.4
2022-11-16T16:00:03.466Z,8.4
2022-11-16T16:01:10.012Z,8.4
2022-11-16T16:02:16.547Z,8.5
2022-11-16T16:03:23.061Z,8.5
2022-11-16T16:04:29.608Z,8.5
2022-11-16T16:05:36.152Z,8.6
2022-11-16T16:06:42.677Z,8.6
2022-11-16T16:07:49.209Z,8.6
2022-11-16T16:08:55.755Z,8.6
2022-11-16T16:10:02.293Z,8.6
2022-11-16T16:11:08.828Z,8.6
2022-11-16T16:12:15.468Z,8.6
2022-11-16T16:13:21.895Z,8.6
2022-11-16T16:14:28.457Z,8.6
2022-11-16T16:15:34.972Z,8.6
2022-11-16T16:16:41.521Z,8.6
2022-11-16T16:17:48.093Z,8.6
2022-11-16T16:18:54.647Z,8.5
2022-11-16T16:20:01.115Z,8.5
2022-11-16T16:21:07.674Z,8.5
2022-11-16T16:22:14.205Z,8.5
2022-11-16T16:23:20.717Z,8.5
2022-11-16T16:24:27.253Z,8.4
2022-11-16T16:25:33.861Z,8.3
2022-11-16T16:26:40.567Z,8.3
2022-11-16T16:27:47.355Z,8.2
2022-11-16T16:28:54.123Z,8.2
2022-11-16T16:30:00.884Z,8.2
2022-11-16T16:31:07.654Z,8.2
2022-11-16T16:32:14.427Z,8.2
2022-11-16T16:33:21.232Z,8.1
2022-11-16T16:34:28.002Z,8.1
2022-11-16T16:35:34.799Z,8.1
2022-11-16T16:36:41.537Z,8.1
2022-11-16T16:37:48.300Z,8
2022-11-16T16:38:55.072Z,8
2022-11-16T16:40:01.841Z,7.9
2022-11-16T16:41:09.170Z,7.9
2022-11-16T16:42:47.195Z,7.9
2022-11-16T16:43:53.669Z,8
2022-11-16T16:45:00.197Z,8
2022-11-16T16:46:06.732Z,8.1
2022-11-16T16:47:13.273Z,8.1
2022-11-16T16:48:19.809Z,8.2
2022-11-16T16:49:26.347Z,8.2
2022-11-16T16:50:32.926Z,8.2
2022-11-16T16:51:39.424Z,8.2
2022-11-16T16:52:45.942Z,8.3
2022-11-16T16:53:52.580Z,8.3
2022-11-16T16:54:59.022Z,8.4
2022-11-16T16:56:05.567Z,8.4
2022-11-16T16:57:12.100Z,8.5
2022-11-16T16:58:18.685Z,8.5
2022-11-16T16:59:25.165Z,8.5
2022-11-16T17:00:31.766Z,8.5
2022-11-16T17:01:38.252Z,8.5
2022-11-16T17:02:44.767Z,8.5
2022-11-16T17:03:51.306Z,8.5
2022-11-16T17:04:57.922Z,8.4
2022-11-16T17:06:04.406Z,8.4
2022-11-16T17:07:10.912Z,8.4
2022-11-16T17:08:17.447Z,8.4
2022-11-16T17:09:23.991Z,8.4
2022-11-16T17:10:30.756Z,8.4
2022-11-16T17:11:37.542Z,8.3
2022-11-16T17:12:44.311Z,8.3
2022-11-16T17:13:51.076Z,8.3
2022-11-16T17:14:57.872Z,8.3
2022-11-16T17:16:04.626Z,8.3
2022-11-16T17:17:11.397Z,8.3
2022-11-16T17:18:18.165Z,8.2
2022-11-16T17:19:24.969Z,8.2
2022-11-16T17:20:31.735Z,8.1
2022-11-16T17:21:38.483Z,8.2
2022-11-16T17:22:45.265Z,8.1
2022-11-16T17:23:52.034Z,8.1
2022-11-16T17:27:10.231Z,8
2022-11-16T17:28:45.728Z,8
2022-11-16T17:29:51.705Z,8
2022-11-16T17:30:58.118Z,8
2022-11-16T17:32:04.530Z,8
2022-11-16T17:33:10.940Z,8
2022-11-16T17:34:17.367Z,8
2022-11-16T17:35:23.766Z,8.1
2022-11-16T17:36:30.198Z,8.1
2022-11-16T17:37:36.778Z,8.2
2022-11-16T17:38:43.021Z,8.2
2022-11-16T17:39:49.501Z,8.2
2022-11-16T17:40:55.933Z,8.2
2022-11-16T17:42:02.281Z,8.2
2022-11-16T17:43:08.693Z,8.1
2022-11-16T17:44:15.106Z,8.1
2022-11-16T17:45:21.530Z,8
2022-11-16T17:46:27.944Z,8
2022-11-16T17:47:34.349Z,7.9
2022-11-16T17:48:40.778Z,7.9
2022-11-16T17:49:47.194Z,7.9
2022-11-16T17:50:53.619Z,7.9
2022-11-16T17:52:00.032Z,7.9
2022-11-16T17:53:06.563Z,7.8
2022-11-16T17:54:12.991Z,7.9
2022-11-16T17:55:19.413Z,7.9
2022-11-16T17:56:25.836Z,7.9
2022-11-16T17:57:32.389Z,7.8
2022-11-16T17:58:38.929Z,7.9